Time;durP1;ratioP1;P1;durP2;ratioP2;P2;SDS_P1;SDS_P2;PMS_P1;PMS_P2;Temp;Humidity;BMP_temperature;BMP_pressure;BME280_temperature;BME280_humidity;BME280_pressure;Samples;Min_cycle;Max_cycle;Signal;HPM_P1;HPM_P2
2022/05/01 00:00:06;;;;;;;18.27;14.38;;;14.90;53.50;;;7.91;85.61;102271.91;172849;28;875;-67
2022/05/01 00:00:13;;;;;;;18.10;14.66;;;14.90;53.50;;;7.90;86.21;102265.81;172734;28;1083;-67
2022/05/01 00:00:20;;;;;;;17.60;14.97;;;14.90;53.50;;;7.89;86.35;102261.50;172811;28;836;-68
2022/05/01 00:00:27;;;;;;;17.98;15.04;;;14.90;53.50;;;7.90;86.05;102268.44;172725;28;1009;-68
2022/05/01 00:00:33;;;;;;;16.98;14.76;;;14.90;53.50;;;7.91;86.28;102270.19;172611;28;918;-67
2022/05/01 00:00:38;;;;;;;16.45;14.50;;;14.90;53.50;;;7.94;85.63;102274.47;172751;28;925;-67
2022/05/01 00:00:45;;;;;;;16.23;14.35;;;14.90;53.50;;;7.95;85.48;102269.28;172704;28;898;-67
2022/05/01 00:00:51;;;;;;;16.10;14.40;;;14.90;53.50;;;7.97;85.48;102266.63;172715;28;1093;-67
2022/05/01 00:00:57;;;;;;;16.27;14.57;;;14.90;53.50;;;7.96;85.55;102265.78;172752;28;994;-67
2022/05/01 00:01:02;;;;;;;16.33;14.63;;;14.90;53.50;;;7.98;85.39;102270.97;172740;28;951;-67
2022/05/01 00:01:08;;;;;;;16.57;14.70;;;14.90;53.50;;;7.98;85.63;102269.22;172718;28;1025;-68
2022/05/01 00:01:14;;;;;;;16.38;14.63;;;14.90;53.50;;;7.96;85.32;102265.78;172674;28;993;-68
2022/05/01 00:01:20;;;;;;;16.42;14.50;;;14.90;53.50;;;7.95;85.56;102266.66;172751;28;1184;-67
2022/05/01 00:01:25;;;;;;;16.52;14.27;;;14.90;53.50;;;7.95;85.63;102266.66;172737;28;927;-67
2022/05/01 00:01:31;;;;;;;16.23;14.00;;;14.90;53.50;;;7.95;85.87;102258.00;172713;28;1154;-68
2022/05/01 00:01:37;;;;;;;16.13;13.83;;;14.90;53.50;;;7.97;85.47;102264.91;172724;28;851;-68
2022/05/01 00:01:43;;;;;;;15.75;13.80;;;14.90;53.50;;;7.98;85.16;102268.38;172722;28;856;-67
2022/05/01 00:01:49;;;;;;;15.45;13.60;;;15.00;53.50;;;8.00;85.00;102264.00;172767;28;1092;-67
2022/05/01 00:01:54;;;;;;;14.93;13.43;;;14.90;53.50;;;8.03;84.87;102268.31;172746;28;1019;-67
2022/05/01 00:02:00;;;;;;;14.97;13.47;;;14.90;53.40;;;8.05;85.12;102262.25;172757;28;856;-67
2022/05/01 00:02:06;;;;;;;15.13;13.52;;;15.00;53.40;;;8.09;85.21;102270.88;172722;28;1254;-67
2022/05/01 00:02:11;;;;;;;15.23;13.48;;;14.90;53.40;;;8.11;84.28;102272.59;172716;28;950;-68
2022/05/01 00:02:17;;;;;;;15.63;13.60;;;14.90;53.40;;;8.13;84.52;102269.97;172800;28;852;-67
2022/05/01 00:02:23;;;;;;;15.40;13.68;;;14.90;53.40;;;8.13;84.22;102269.97;172750;28;934;-67
2022/05/01 00:02:28;;;;;;;15.68;13.93;;;14.90;53.40;;;8.15;84.18;102267.34;172719;28;919;-67
2022/05/01 00:02:34;;;;;;;15.70;14.07;;;14.90;53.40;;;8.15;84.72;102269.97;172640;28;1795;-67
2022/05/01 00:02:40;;;;;;;16.05;14.40;;;14.90;53.40;;;8.16;83.95;102269.94;172652;28;1054;-67
2022/05/01 00:02:45;;;;;;;16.55;14.85;;;14.90;53.30;;;8.19;84.32;102267.31;172776;28;923;-68
2022/05/01 00:02:51;;;;;;;16.77;14.98;;;14.90;53.40;;;8.21;83.76;102270.75;172754;28;872;-68
2022/05/01 00:02:57;;;;;;;16.60;14.80;;;14.90;53.30;;;8.24;84.11;102268.13;172748;28;1029;-67
2022/05/01 00:03:03;;;;;;;16.53;14.70;;;14.90;53.30;;;8.25;83.70;102269.84;172756;28;859;-67
2022/05/01 00:03:30;;;;;;;16.33;14.48;;;14.90;53.30;;;8.28;83.99;102275.91;172677;28;1299;-67
2022/05/01 00:03:35;;;;;;;15.88;14.03;;;14.90;53.30;;;8.32;83.55;102267.19;173160;28;1165;-67
2022/05/01 00:03:42;;;;;;;15.90;14.20;;;14.90;53.40;;;8.33;83.56;102271.50;173401;28;1090;-67
2022/05/01 00:03:48;;;;;;;15.85;14.15;;;14.90;53.30;;;8.33;83.55;102264.59;173344;28;943;-67
2022/05/01 00:03:53;;;;;;;15.53;13.93;;;14.90;53.30;;;8.35;83.10;102272.38;173353;28;914;-67
2022/05/01 00:03:59;;;;;;;15.75;14.10;;;14.90;53.30;;;8.35;83.30;102270.63;173337;28;1065;-67
2022/05/01 00:04:06;;;;;;;16.38;14.15;;;15.00;53.30;;;8.35;83.35;102268.03;173292;28;1121;-67
2022/05/01 00:04:11;;;;;;;17.20;14.20;;;14.90;53.30;;;8.37;82.97;102262.81;173272;28;1968;-67
2022/05/01 00:04:17;;;;;;;18.35;14.10;;;14.90;53.30;;;8.37;83.06;102268.00;173322;28;1283;-67
2022/05/01 00:04:23;;;;;;;18.43;14.10;;;14.90;53.30;;;8.38;83.10;102269.72;173288;28;1046;-67
2022/05/01 00:04:28;;;;;;;17.70;14.10;;;15.00;53.30;;;8.38;83.25;102270.59;173311;28;939;-67
2022/05/01 00:04:35;;;;;;;17.15;14.10;;;14.90;53.30;;;8.39;82.99;102266.25;173406;28;1054;-67
2022/05/01 00:04:41;;;;;;;17.00;14.37;;;14.90;53.30;;;8.41;82.99;102259.28;173390;28;982;-68
2022/05/01 00:04:47;;;;;;;16.80;14.66;;;14.90;53.30;;;8.41;83.20;102274.91;173435;28;993;-67
2022/05/01 00:04:52;;;;;;;17.10;14.93;;;15.00;53.40;;;8.42;83.29;102263.59;173365;28;1061;-67
2022/05/01 00:04:58;;;;;;;17.20;14.85;;;14.90;53.30;;;8.44;83.11;102274.00;173469;28;898;-67
2022/05/01 00:05:05;;;;;;;16.57;14.70;;;14.90;53.40;;;8.45;82.84;102267.94;173410;28;1050;-68
2022/05/01 00:05:10;;;;;;;16.86;14.38;;;14.90;53.40;;;8.45;82.83;102266.19;173395;28;990;-67
2022/05/01 00:05:16;;;;;;;16.47;14.20;;;14.90;53.40;;;8.46;82.96;102267.06;173414;28;967;-67
2022/05/01 00:05:22;;;;;;;16.60;14.20;;;14.90;53.40;;;8.45;83.03;102266.19;173390;28;942;-67
2022/05/01 00:05:29;;;;;;;16.92;14.25;;;14.90;53.40;;;8.47;82.62;102267.03;173410;28;927;-67
2022/05/01 00:05:35;;;;;;;16.53;14.40;;;14.90;53.40;;;8.47;82.66;102264.44;173430;28;1005;-67
2022/05/01 00:05:40;;;;;;;16.30;14.60;;;14.90;53.40;;;8.48;82.92;102257.47;173357;28;946;-66
2022/05/01 00:05:46;;;;;;;16.23;14.57;;;14.90;53.40;;;8.48;82.57;102266.16;173426;28;847;-67
2022/05/01 00:05:52;;;;;;;16.13;14.50;;;15.00;53.40;;;8.49;83.09;102267.88;173375;28;1061;-67
2022/05/01 00:06:04;;;;;;;16.25;14.55;;;15.00;53.40;;;8.50;83.03;102274.81;173403;28;931;-68
2022/05/01 00:06:12;;;;;;;16.29;14.59;;;14.90;53.40;;;8.49;82.98;102267.88;173897;28;1727;-67
2022/05/01 00:06:19;;;;;;;16.00;14.30;;;14.90;53.40;;;8.50;82.78;102267.00;174064;28;997;-67
2022/05/01 00:06:24;;;;;;;15.72;14.08;;;14.90;53.40;;;8.50;83.03;102264.41;174076;28;954;-67
2022/05/01 00:06:32;;;;;;;15.25;13.75;;;15.00;53.40;;;8.50;82.72;102264.41;174033;28;1306;-67
2022/05/01 00:06:38;;;;;;;15.12;13.62;;;14.90;53.40;;;8.52;82.45;102266.13;174050;28;1008;-67
2022/05/01 00:06:44;;;;;;;15.30;13.80;;;15.00;53.40;;;8.53;82.86;102268.75;174087;28;883;-67
2022/05/01 00:06:50;;;;;;;15.60;14.00;;;14.90;53.40;;;8.54;82.71;102264.38;174039;28;871;-67
2022/05/01 00:06:55;;;;;;;15.80;14.10;;;15.00;53.40;;;8.56;82.64;102273.06;174062;28;990;-67
2022/05/01 00:07:01;;;;;;;15.90;14.20;;;15.00;53.40;;;8.53;82.92;102262.63;174041;28;1053;-67
2022/05/01 00:07:10;;;;;;;17.67;14.25;;;14.90;53.40;;;8.57;82.67;102266.97;174086;28;930;-67
2022/05/01 00:07:16;;;;;;;16.97;14.07;;;15.00;53.40;;;8.58;82.42;102271.28;174105;28;894;-67
2022/05/01 00:07:22;;;;;;;16.85;14.13;;;15.00;53.40;;;8.57;82.80;102264.38;173254;28;1266;-67
2022/05/01 00:07:28;;;;;;;16.95;14.23;;;15.00;53.40;;;8.59;82.64;102268.66;173359;28;938;-67
2022/05/01 00:07:34;;;;;;;17.02;14.20;;;14.90;53.40;;;8.57;82.55;102267.84;173346;28;1105;-67
2022/05/01 00:07:39;;;;;;;17.27;14.45;;;15.00;53.40;;;8.58;82.61;102266.06;173343;28;1069;-67
2022/05/01 00:07:45;;;;;;;17.40;14.50;;;15.00;53.40;;;8.58;82.52;102266.06;173382;28;966;-67
2022/05/01 00:07:51;;;;;;;17.27;14.52;;;15.00;53.40;;;8.60;82.14;102269.53;173367;28;1073;-66
2022/05/01 00:07:58;;;;;;;16.83;14.20;;;15.00;53.40;;;8.61;82.09;102268.66;173345;28;859;-66
2022/05/01 00:08:04;;;;;;;16.83;14.23;;;14.90;53.40;;;8.63;82.42;102264.31;173348;28;939;-67
2022/05/01 00:08:10;;;;;;;15.55;13.95;;;15.00;53.40;;;8.62;82.26;102268.63;172730;28;1089;-67
2022/05/01 00:08:16;;;;;;;15.60;14.00;;;15.00;53.40;;;8.64;81.98;102271.22;172684;28;1006;-68
2022/05/01 00:08:21;;;;;;;15.52;13.93;;;15.00;53.40;;;8.65;82.30;102272.09;172697;28;875;-68
2022/05/01 00:08:28;;;;;;;15.87;14.27;;;15.00;53.40;;;8.64;81.98;102271.22;171998;28;941;-68
2022/05/01 00:08:40;;;;;;;15.94;14.34;;;14.90;53.40;;;8.63;82.23;102269.50;171782;28;1329;-67
2022/05/01 00:08:46;;;;;;;16.13;14.52;;;15.00;53.40;;;8.63;82.25;102269.50;172560;28;1442;-67
2022/05/01 00:08:51;;;;;;;16.02;14.40;;;15.00;53.40;;;8.62;82.21;102263.44;172644;28;1097;-67
2022/05/01 00:08:58;;;;;;;15.73;14.13;;;15.00;53.40;;;8.62;82.23;102267.75;172614;28;875;-67
2022/05/01 00:09:05;;;;;;;15.65;14.05;;;15.00;53.40;;;8.62;82.05;102266.03;172709;28;951;-67
2022/05/01 00:09:10;;;;;;;15.52;13.92;;;15.00;53.40;;;8.62;82.06;102266.03;172667;28;1117;-67
2022/05/01 00:09:16;;;;;;;15.53;13.93;;;15.00;53.50;;;8.62;82.46;102270.38;172704;28;1101;-67
2022/05/01 00:09:22;;;;;;;15.57;13.98;;;15.00;53.40;;;8.62;82.33;102267.75;173218;28;910;-67
2022/05/01 00:09:27;;;;;;;15.98;14.30;;;15.00;53.40;;;8.62;81.92;102267.75;173379;28;1065;-67
2022/05/01 00:09:33;;;;;;;16.03;14.23;;;15.00;53.40;;;8.62;82.24;102263.44;173380;28;1097;-67
2022/05/01 00:09:40;;;;;;;16.40;14.18;;;15.00;53.40;;;8.63;82.06;102264.31;173378;28;931;-67
2022/05/01 00:09:45;;;;;;;15.90;14.14;;;15.00;53.40;;;8.63;82.16;102269.50;173389;28;1073;-67
2022/05/01 00:09:51;;;;;;;16.40;14.10;;;15.00;53.40;;;8.64;82.31;102271.22;173398;28;1073;-67
2022/05/01 00:09:57;;;;;;;16.80;14.03;;;15.00;53.40;;;8.64;82.26;102266.03;173369;28;1042;-67
2022/05/01 00:10:04;;;;;;;16.23;14.02;;;15.00;53.40;;;8.65;82.33;102266.91;173390;28;1241;-67
2022/05/01 00:10:10;;;;;;;16.20;14.20;;;15.00;53.40;;;8.66;82.13;102260.81;173449;28;970;-67
2022/05/01 00:10:16;;;;;;;16.58;14.48;;;15.00;53.40;;;8.65;82.25;102267.72;173391;28;947;-67
2022/05/01 00:10:22;;;;;;;16.54;14.40;;;15.00;53.40;;;8.66;81.96;102269.47;173404;28;978;-67
2022/05/01 00:10:28;;;;;;;16.63;14.57;;;15.00;53.40;;;8.67;82.35;102266.00;173388;28;1096;-67
2022/05/01 00:10:33;;;;;;;16.65;14.63;;;15.00;53.40;;;8.67;82.19;102271.19;173396;28;1069;-67
2022/05/01 00:10:39;;;;;;;17.90;14.70;;;15.00;53.40;;;8.67;81.84;102270.31;173402;28;914;-68
2022/05/01 00:10:45;;;;;;;18.40;14.50;;;15.00;53.40;;;8.66;81.92;102264.28;173396;28;1163;-68
2022/05/01 00:10:50;;;;;;;17.42;14.48;;;15.00;53.40;;;8.67;81.83;102259.91;173412;28;879;-67
2022/05/01 00:10:57;;;;;;;16.85;14.20;;;15.00;53.40;;;8.67;81.78;102268.59;173324;28;1065;-67
2022/05/01 00:11:04;;;;;;;15.85;14.00;;;15.00;53.40;;;8.66;82.16;102264.28;173421;28;915;-67
2022/05/01 00:11:10;;;;;;;15.30;13.72;;;15.00;53.40;;;8.68;81.78;102264.22;173420;28;1240;-67
2022/05/01 00:11:16;;;;;;;15.20;13.70;;;15.00;53.40;;;8.66;82.37;102268.59;173425;28;848;-67
2022/05/01 00:11:21;;;;;;;15.40;13.90;;;15.00;53.40;;;8.66;81.99;102266.88;173416;28;1164;-67
2022/05/01 00:11:29;;;;;;;15.60;14.05;;;15.00;53.40;;;8.65;81.95;102265.13;173362;28;1045;-67
2022/05/01 00:11:35;;;;;;;15.83;14.13;;;15.00;53.40;;;8.66;82.05;102269.47;173395;28;994;-68
2022/05/01 00:11:42;;;;;;;16.07;14.37;;;15.00;53.50;;;8.66;82.04;102266.00;173383;28;1033;-68
2022/05/01 00:11:48;;;;;;;17.76;14.52;;;15.00;53.40;;;8.65;82.37;102267.72;173445;28;1133;-67
2022/05/01 00:11:53;;;;;;;18.43;14.50;;;15.00;53.40;;;8.65;81.86;102269.50;173433;28;977;-67
2022/05/01 00:11:59;;;;;;;19.02;14.50;;;15.00;53.50;;;8.66;82.17;102264.28;172573;28;1065;-67
2022/05/01 00:12:08;;;;;;;18.92;14.57;;;15.00;53.40;;;8.65;81.93;102267.72;172704;28;990;-67
2022/05/01 00:12:13;;;;;;;18.67;14.40;;;15.00;53.40;;;8.65;81.84;102265.13;172649;28;1176;-67
2022/05/01 00:12:20;;;;;;;16.55;14.10;;;15.00;53.40;;;8.66;82.21;102264.28;172756;28;887;-67
2022/05/01 00:12:26;;;;;;;15.93;13.83;;;15.00;53.40;;;8.66;81.76;102272.09;172688;28;880;-67
2022/05/01 00:12:31;;;;;;;16.02;13.75;;;15.00;53.30;;;8.66;81.72;102269.47;172666;28;959;-67
2022/05/01 00:12:37;;;;;;;16.27;13.70;;;15.00;53.30;;;8.66;81.90;102269.47;171875;28;1523;-67
2022/05/01 00:12:43;;;;;;;16.33;13.73;;;15.00;53.30;;;8.66;81.94;102273.81;172021;28;900;-67
2022/05/01 00:12:48;;;;;;;16.45;13.70;;;15.00;53.30;;;8.66;82.01;102264.28;172030;28;860;-67
2022/05/01 00:12:54;;;;;;;17.48;14.05;;;15.00;53.30;;;8.67;81.75;102265.13;172010;28;1067;-67
2022/05/01 00:13:00;;;;;;;16.20;14.07;;;15.00;53.30;;;8.67;81.69;102268.59;171987;28;971;-68
2022/05/01 00:13:06;;;;;;;15.80;14.10;;;15.00;53.30;;;8.67;82.09;102268.59;171831;28;1069;-68
2022/05/01 00:13:12;;;;;;;15.88;14.13;;;15.00;53.20;;;8.68;81.56;102261.63;171943;28;1042;-68
2022/05/01 00:13:17;;;;;;;15.87;14.17;;;15.00;53.20;;;8.70;82.04;102265.09;172044;28;1037;-68
2022/05/01 00:13:24;;;;;;;15.90;14.25;;;15.00;53.20;;;8.69;81.89;102268.56;172017;28;907;-68
2022/05/01 00:13:30;;;;;;;15.82;14.20;;;15.00;53.30;;;8.71;81.59;102269.41;171997;28;1101;-67
2022/05/01 00:13:36;;;;;;;15.82;14.23;;;15.00;53.30;;;8.71;81.54;102266.81;172028;28;935;-67
2022/05/01 00:13:45;;;;;;;15.86;14.22;;;15.00;53.30;;;8.71;81.70;102272.88;172002;28;986;-67
2022/05/01 00:13:51;;;;;;;15.71;14.07;;;15.00;53.20;;;8.72;81.62;102269.41;172030;28;1072;-67
2022/05/01 00:13:57;;;;;;;15.47;13.87;;;15.00;53.20;;;8.72;81.77;102268.53;172002;28;911;-67
2022/05/01 00:14:03;;;;;;;15.50;13.88;;;15.00;53.20;;;8.72;81.76;102269.41;172011;28;935;-67
2022/05/01 00:14:09;;;;;;;15.07;13.55;;;15.00;53.20;;;8.73;81.45;102268.50;171996;28;1046;-67
2022/05/01 00:14:15;;;;;;;14.95;13.43;;;15.00;53.20;;;8.73;81.66;102270.25;171980;28;1119;-68
2022/05/01 00:14:21;;;;;;;15.07;13.27;;;15.10;53.20;;;8.73;81.68;102265.91;172031;28;1467;-68
2022/05/01 00:14:28;;;;;;;15.43;13.18;;;15.10;53.10;;;8.73;81.29;102267.66;171885;28;1006;-67
2022/05/01 00:14:34;;;;;;;15.60;13.18;;;15.00;53.10;;;8.72;81.69;102271.13;171292;28;1078;-67
2022/05/01 00:14:40;;;;;;;15.92;13.64;;;15.00;53.10;;;8.71;81.18;102267.69;172007;28;915;-67
2022/05/01 00:14:46;;;;;;;16.25;13.90;;;15.10;53.10;;;8.71;81.61;102267.69;171221;28;1561;-67
2022/05/01 00:14:51;;;;;;;15.90;14.17;;;15.00;53.10;;;8.71;81.23;102266.81;171388;28;1054;-67
2022/05/01 00:14:57;;;;;;;15.90;14.20;;;15.00;53.10;;;8.71;81.41;102267.69;171340;28;879;-67
2022/05/01 00:15:05;;;;;;;15.90;14.20;;;15.10;53.10;;;8.71;80.76;102267.69;171337;28;868;-67
2022/05/01 00:15:11;;;;;;;15.57;13.92;;;15.10;53.10;;;8.71;81.54;102262.47;171216;28;1143;-67
2022/05/01 00:15:17;;;;;;;15.52;13.90;;;15.10;53.10;;;8.72;81.32;102269.41;171354;28;986;-67
2022/05/01 00:15:23;;;;;;;15.63;13.98;;;15.00;53.10;;;8.73;81.36;102273.72;171346;28;928;-67
2022/05/01 00:15:29;;;;;;;16.05;14.23;;;15.10;53.10;;;8.73;81.26;102271.09;171346;28;903;-67
2022/05/01 00:15:35;;;;;;;16.00;14.20;;;15.00;53.10;;;8.72;81.54;102269.41;171840;28;1071;-66
2022/05/01 00:15:42;;;;;;;16.15;14.25;;;15.10;53.10;;;8.73;81.32;102268.50;171936;28;864;-67
2022/05/01 00:15:48;;;;;;;15.93;14.20;;;15.10;53.10;;;8.73;81.31;102268.50;172060;28;923;-67
2022/05/01 00:15:54;;;;;;;15.90;14.00;;;15.10;53.10;;;8.72;81.09;102269.41;171993;28;1058;-68
2022/05/01 00:16:02;;;;;;;15.32;13.73;;;15.10;53.10;;;8.75;81.35;102264.16;171978;28;974;-68
2022/05/01 00:16:08;;;;;;;15.60;13.87;;;15.10;53.10;;;8.74;81.64;102275.47;171972;28;985;-67
2022/05/01 00:16:14;;;;;;;15.73;13.95;;;15.10;53.10;;;8.73;81.71;102271.09;171973;28;1121;-67
2022/05/01 00:16:20;;;;;;;15.88;14.15;;;15.10;53.10;;;8.74;81.39;102267.66;172018;28;876;-67
2022/05/01 00:16:26;;;;;;;16.48;14.45;;;15.10;53.10;;;8.73;81.63;102271.09;172365;28;994;-67
2022/05/01 00:16:32;;;;;;;17.10;14.50;;;15.10;53.20;;;8.75;81.82;102273.69;173020;28;1077;-67
2022/05/01 00:16:38;;;;;;;17.40;14.55;;;15.10;53.20;;;8.74;81.61;102278.06;173349;28;934;-67
2022/05/01 00:16:44;;;;;;;16.60;14.40;;;15.10;53.20;;;8.75;81.45;102271.97;173612;28;935;-67
2022/05/01 00:16:49;;;;;;;16.63;14.30;;;15.10;53.20;;;8.75;81.21;102269.38;173328;28;942;-67
2022/05/01 00:16:55;;;;;;;16.50;14.20;;;15.10;53.20;;;8.75;81.48;102271.97;173353;28;922;-67
2022/05/01 00:17:02;;;;;;;16.05;14.35;;;15.10;53.20;;;8.75;81.65;102271.97;173358;28;1042;-67
2022/05/01 00:17:07;;;;;;;15.90;14.30;;;15.10;53.20;;;8.75;81.57;102274.56;173350;28;1050;-67
2022/05/01 00:17:13;;;;;;;16.20;14.50;;;15.10;53.20;;;8.76;81.88;102267.63;173348;28;1041;-67
2022/05/01 00:17:18;;;;;;;16.42;14.68;;;15.10;53.30;;;8.75;82.00;102268.50;173354;28;1404;-67
2022/05/01 00:17:24;;;;;;;16.40;14.70;;;15.10;53.30;;;8.75;81.96;102271.97;173326;28;1108;-67
2022/05/01 00:17:30;;;;;;;16.17;14.47;;;15.10;53.30;;;8.75;82.08;102266.75;173258;28;1418;-67
2022/05/01 00:17:35;;;;;;;16.05;14.40;;;15.10;53.30;;;8.75;82.32;102266.75;172738;28;895;-67
2022/05/01 00:17:41;;;;;;;16.07;14.37;;;15.10;53.40;;;8.75;81.96;102269.38;172672;28;977;-67
2022/05/01 00:17:47;;;;;;;15.75;14.15;;;15.10;53.40;;;8.76;81.78;102271.06;171944;28;876;-68
2022/05/01 00:17:52;;;;;;;15.50;13.88;;;15.10;53.40;;;8.75;81.84;102264.16;172030;28;1129;-67
2022/05/01 00:17:58;;;;;;;15.53;13.93;;;15.10;53.40;;;8.76;81.87;102271.06;172001;28;1293;-67
2022/05/01 00:18:04;;;;;;;16.08;13.88;;;15.10;53.40;;;8.76;82.01;102270.22;171985;28;931;-68
2022/05/01 00:18:09;;;;;;;16.27;13.93;;;15.10;53.40;;;8.76;82.01;102265.03;172014;28;884;-68
2022/05/01 00:18:16;;;;;;;16.60;14.02;;;15.10;53.40;;;8.78;81.54;102267.59;171973;28;1038;-68
2022/05/01 00:18:22;;;;;;;16.98;14.18;;;15.10;53.40;;;8.79;81.62;102271.94;172042;28;1169;-67
2022/05/01 00:18:28;;;;;;;17.10;14.27;;;15.10;53.30;;;8.79;81.84;102269.34;171987;28;1472;-67
2022/05/01 00:18:34;;;;;;;16.00;14.20;;;15.10;53.30;;;8.79;81.60;102266.72;171992;28;1537;-67
2022/05/01 00:18:41;;;;;;;15.84;14.04;;;15.10;53.30;;;8.79;81.51;102270.19;172008;28;1363;-67
2022/05/01 00:18:47;;;;;;;15.57;13.98;;;15.10;53.20;;;8.79;81.80;102261.53;172155;28;907;-67
2022/05/01 00:18:52;;;;;;;15.38;13.80;;;15.10;53.20;;;8.79;81.71;102269.34;171965;28;1283;-68
2022/05/01 00:18:59;;;;;;;15.38;13.80;;;15.10;53.20;;;8.74;81.98;102259.84;171994;28;877;-68
2022/05/01 00:19:08;;;;;;;15.44;13.90;;;15.10;53.20;;;8.78;81.84;102264.97;172029;28;1294;-67
2022/05/01 00:19:14;;;;;;;15.60;13.88;;;15.10;53.20;;;8.75;81.74;102269.38;171988;28;994;-67
2022/05/01 00:19:19;;;;;;;16.02;14.25;;;15.10;53.20;;;8.77;81.88;102266.75;171991;28;1074;-68
2022/05/01 00:19:25;;;;;;;15.90;14.20;;;15.10;53.20;;;8.77;81.31;102266.75;171984;28;931;-67
2022/05/01 00:19:31;;;;;;;16.17;14.27;;;15.10;53.20;;;8.78;81.49;102264.97;172030;28;844;-68
2022/05/01 00:19:36;;;;;;;16.63;14.38;;;15.20;53.10;;;8.79;81.48;102269.34;172004;28;1056;-68
2022/05/01 00:19:42;;;;;;;16.25;14.38;;;15.10;53.20;;;8.78;81.40;102268.47;171929;28;1626;-68
2022/05/01 00:19:48;;;;;;;16.00;14.30;;;15.10;53.20;;;8.78;81.53;102268.47;172039;28;1022;-68
2022/05/01 00:19:55;;;;;;;16.08;14.38;;;15.10;53.10;;;8.76;81.35;102263.28;172016;28;1101;-67
2022/05/01 00:20:01;;;;;;;16.12;14.46;;;15.10;53.10;;;8.78;81.72;102273.66;171966;28;919;-67
2022/05/01 00:20:07;;;;;;;16.00;14.40;;;15.10;53.10;;;8.78;81.28;102262.38;171989;28;923;-67
2022/05/01 00:20:15;;;;;;;16.10;14.46;;;15.20;53.20;;;8.76;81.63;102265.88;171992;28;982;-66
2022/05/01 00:20:20;;;;;;;15.94;14.28;;;15.10;53.20;;;8.76;81.46;102271.06;172041;28;1104;-67
2022/05/01 00:20:26;;;;;;;16.05;14.20;;;15.20;53.20;;;8.75;81.73;102261.56;172013;28;1038;-67
2022/05/01 00:20:32;;;;;;;15.90;14.20;;;15.10;53.20;;;8.75;81.55;102266.75;171992;28;1301;-67
2022/05/01 00:20:37;;;;;;;16.05;14.00;;;15.10;53.20;;;8.75;81.68;102263.28;171976;28;920;-66
2022/05/01 00:20:43;;;;;;;16.15;13.98;;;15.10;53.20;;;8.74;81.61;102270.25;171995;28;911;-67
2022/05/01 00:20:49;;;;;;;16.13;14.00;;;15.10;53.20;;;8.72;81.76;102264.19;172068;28;1105;-67
2022/05/01 00:20:55;;;;;;;15.90;14.13;;;15.10;53.20;;;8.72;81.78;102264.19;172682;28;955;-67
2022/05/01 00:21:01;;;;;;;15.90;14.18;;;15.10;53.20;;;8.72;81.42;102261.59;172678;28;975;-68
2022/05/01 00:21:07;;;;;;;15.82;14.18;;;15.10;53.20;;;8.72;81.51;102266.78;172649;28;1046;-68
2022/05/01 00:21:13;;;;;;;15.67;14.03;;;15.10;53.20;;;8.72;81.55;102263.31;172654;28;1152;-67
2022/05/01 00:21:19;;;;;;;15.67;14.07;;;15.10;53.20;;;8.72;82.03;102266.78;172719;28;967;-67
2022/05/01 00:21:24;;;;;;;15.88;14.23;;;15.10;53.20;;;8.71;82.07;102265.06;172600;28;1092;-66
2022/05/01 00:21:30;;;;;;;16.00;14.30;;;15.10;53.20;;;8.71;81.83;102265.06;172712;28;1121;-67
2022/05/01 00:21:37;;;;;;;16.80;14.48;;;15.10;53.20;;;8.72;81.76;102268.53;172708;28;918;-67
2022/05/01 00:21:43;;;;;;;16.87;14.77;;;15.10;53.10;;;8.71;81.72;102265.06;173366;28;1081;-67
2022/05/01 00:21:49;;;;;;;17.07;14.70;;;15.10;53.20;;;8.70;81.42;102255.56;173411;28;1085;-67
2022/05/01 00:21:56;;;;;;;16.77;14.45;;;15.10;53.20;;;8.70;81.75;102270.28;173375;28;958;-67
2022/05/01 00:22:02;;;;;;;17.20;14.40;;;15.20;53.10;;;8.69;81.77;102264.22;173270;28;1586;-67
2022/05/01 00:22:08;;;;;;;17.40;14.37;;;15.10;53.10;;;8.69;81.56;102264.22;173388;28;1199;-67
2022/05/01 00:22:14;;;;;;;16.65;14.27;;;15.10;53.20;;;8.69;81.84;102263.38;173371;28;1078;-67
2022/05/01 00:22:19;;;;;;;16.40;14.27;;;15.10;53.20;;;8.70;81.74;102267.69;173432;28;839;-68
2022/05/01 00:22:25;;;;;;;16.73;14.40;;;15.10;53.20;;;8.70;81.83;102268.56;173383;28;867;-68
2022/05/01 00:22:31;;;;;;;16.25;14.38;;;15.10;53.20;;;8.70;82.20;102265.09;173351;28;1058;-68
2022/05/01 00:22:36;;;;;;;16.07;14.37;;;15.10;53.20;;;8.70;81.90;102263.34;173372;28;907;-67
2022/05/01 00:22:42;;;;;;;16.63;14.50;;;15.10;53.20;;;8.70;82.13;102265.97;172662;28;1053;-67
2022/05/01 00:22:48;;;;;;;17.08;14.65;;;15.10;53.20;;;8.70;82.15;102265.09;172677;28;951;-67
2022/05/01 00:22:53;;;;;;;17.17;14.53;;;15.10;53.30;;;8.69;82.31;102266.81;171876;28;1547;-67
2022/05/01 00:22:59;;;;;;;17.38;14.70;;;15.10;53.20;;;8.69;81.80;102259.00;171991;28;1105;-67
2022/05/01 00:23:05;;;;;;;17.30;14.80;;;15.10;53.20;;;8.70;82.34;102265.97;171968;28;935;-67
2022/05/01 00:23:11;;;;;;;17.42;14.57;;;15.10;53.30;;;8.69;81.97;102264.22;172633;28;1042;-67
2022/05/01 00:23:18;;;;;;;17.85;14.48;;;15.10;53.30;;;8.69;82.07;102268.56;172625;28;1237;-67
2022/05/01 00:23:24;;;;;;;17.60;14.26;;;15.10;53.30;;;8.70;82.29;102265.09;172650;28;935;-67
2022/05/01 00:23:30;;;;;;;17.00;13.68;;;15.10;53.30;;;8.70;82.17;102262.50;171988;28;943;-67
2022/05/01 00:23:38;;;;;;;17.00;13.75;;;15.10;53.30;;;8.71;82.30;102261.59;171962;28;936;-67
2022/05/01 00:23:44;;;;;;;15.72;13.57;;;15.10;53.30;;;8.70;82.04;102260.75;172017;28;970;-67
2022/05/01 00:23:50;;;;;;;16.37;13.67;;;15.10;53.20;;;8.71;81.93;102272.00;172061;28;891;-68
2022/05/01 00:23:55;;;;;;;18.13;14.00;;;15.10;53.30;;;8.71;82.32;102267.69;172014;28;999;-67
2022/05/01 00:24:01;;;;;;;18.88;14.55;;;15.10;53.30;;;8.71;81.73;102262.47;172049;28;903;-67
2022/05/01 00:24:09;;;;;;;19.33;14.50;;;15.10;53.30;;;8.72;82.16;102264.19;172019;28;868;-67
2022/05/01 00:24:14;;;;;;;19.74;14.68;;;15.10;53.30;;;8.72;81.66;102264.19;171996;28;991;-66
2022/05/01 00:24:20;;;;;;;18.60;14.65;;;15.20;53.20;;;8.72;81.93;102269.41;172036;28;907;-67
2022/05/01 00:24:26;;;;;;;16.67;14.40;;;15.10;53.30;;;8.71;82.22;102262.47;171984;28;1093;-66
2022/05/01 00:24:32;;;;;;;15.97;13.97;;;15.10;53.20;;;8.72;81.83;102256.38;172013;28;990;-66
2022/05/01 00:24:38;;;;;;;15.85;14.15;;;15.10;53.30;;;8.71;82.08;102257.25;172012;28;879;-67
2022/05/01 00:24:43;;;;;;;15.60;14.00;;;15.10;53.30;;;8.71;82.32;102259.88;172673;28;959;-68
2022/05/01 00:24:49;;;;;;;15.70;14.10;;;15.10;53.30;;;8.71;82.11;102259.88;172722;28;939;-68
2022/05/01 00:24:55;;;;;;;15.68;14.13;;;15.10;53.30;;;8.72;82.32;102263.31;173382;28;918;-68
2022/05/01 00:25:00;;;;;;;15.63;14.13;;;15.20;53.30;;;8.70;82.42;102263.34;173376;28;1073;-68
2022/05/01 00:25:07;;;;;;;15.50;14.02;;;15.10;53.30;;;8.69;82.33;102256.41;173952;28;731;-68
2022/05/01 00:25:13;;;;;;;15.67;14.13;;;15.10;53.30;;;8.68;82.11;102262.50;174053;28;1077;-68
2022/05/01 00:25:18;;;;;;;15.73;14.13;;;15.10;53.30;;;8.69;82.01;102260.78;174048;28;1013;-68
2022/05/01 00:25:25;;;;;;;15.77;14.17;;;15.20;53.40;;;8.69;82.34;102263.38;174030;28;914;-67
2022/05/01 00:25:32;;;;;;;16.00;14.36;;;15.10;53.40;;;8.68;82.34;102262.50;174038;28;946;-68
2022/05/01 00:25:41;;;;;;;16.30;14.63;;;15.10;53.40;;;8.68;82.22;102262.50;174001;28;1093;-68
2022/05/01 00:25:47;;;;;;;16.16;14.54;;;15.10;53.40;;;8.69;82.15;102263.38;173316;28;1105;-67
2022/05/01 00:25:53;;;;;;;16.23;14.52;;;15.10;53.40;;;8.68;82.63;102265.09;173394;28;919;-67
2022/05/01 00:26:03;;;;;;;15.80;14.15;;;15.10;53.40;;;8.69;82.52;102259.00;173362;28;1104;-68
2022/05/01 00:26:09;;;;;;;15.60;13.99;;;15.20;53.40;;;8.68;82.42;102265.09;173350;28;1169;-68
2022/05/01 00:26:15;;;;;;;15.53;13.90;;;15.20;53.40;;;8.69;82.15;102263.38;173362;28;1033;-67